createdAt,value
2022-11-22T00:02:02.026Z,99780.00
2022-11-22T00:04:40.429Z,99774.00
2022-11-22T00:07:23.159Z,99766.00
2022-11-22T00:09:59.988Z,99768.00
2022-11-22T00:12:33.293Z,99753.00
2022-11-22T00:15:11.299Z,99738.00
2022-11-22T00:17:44.815Z,99743.00
2022-11-22T00:20:23.541Z,99728.00
2022-11-22T00:23:06.870Z,99723.00
2022-11-22T00:25:45.366Z,99738.00
2022-11-22T00:28:26.952Z,99712.00
2022-11-22T00:31:02.022Z,99708.00
2022-11-22T00:33:38.298Z,99700.00
2022-11-22T00:36:16.670Z,99709.00
2022-11-22T00:38:55.373Z,99702.00
2022-11-22T00:41:28.662Z,99705.00
2022-11-22T00:44:01.864Z,99695.00
2022-11-22T00:46:34.841Z,99702.00
2022-11-22T00:49:07.698Z,99702.00
2022-11-22T00:51:41.074Z,99698.00
2022-11-22T00:54:13.841Z,99672.00
2022-11-22T00:56:46.747Z,99670.00
2022-11-22T00:59:19.806Z,99682.00
2022-11-22T01:01:52.734Z,99683.00
2022-11-22T01:04:25.750Z,99667.00
2022-11-22T01:06:58.730Z,99678.00
2022-11-22T01:09:31.822Z,99661.00
2022-11-22T01:12:05.125Z,99679.00
2022-11-22T01:14:41.962Z,99657.00
2022-11-22T01:17:15.461Z,99641.00
2022-11-22T01:19:49.021Z,99654.00
2022-11-22T01:22:21.857Z,99652.00
2022-11-22T01:24:54.821Z,99657.00
2022-11-22T01:27:27.604Z,99616.00
2022-11-22T01:30:00.576Z,99638.00
2022-11-22T01:32:33.371Z,99647.00
2022-11-22T01:35:06.262Z,99636.00
2022-11-22T01:37:39.320Z,99628.00
2022-11-22T01:40:13.592Z,99608.00
2022-11-22T01:42:51.696Z,99619.00
2022-11-22T01:45:41.334Z,99619.00
2022-11-22T01:48:28.367Z,99595.00
2022-11-22T01:51:12.383Z,99599.00
2022-11-22T01:53:45.611Z,99589.00
2022-11-22T01:56:20.284Z,99573.00
2022-11-22T01:58:55.685Z,99589.00
2022-11-22T02:01:28.773Z,99566.00
2022-11-22T02:04:03.332Z,99555.00
2022-11-22T02:06:38.328Z,99544.00
2022-11-22T02:09:18.103Z,99534.00
2022-11-22T02:11:55.970Z,99531.00
2022-11-22T02:14:30.266Z,99538.00
2022-11-22T02:17:06.277Z,99531.00
2022-11-22T02:19:47.212Z,99529.00
2022-11-22T02:22:50.445Z,99529.00
2022-11-22T02:25:42.123Z,99529.00
2022-11-22T02:28:16.140Z,99532.00
2022-11-22T02:30:49.000Z,99543.00
2022-11-22T02:33:21.808Z,99519.00
2022-11-22T02:35:55.084Z,99529.00
2022-11-22T02:38:29.920Z,99563.00
2022-11-22T02:41:07.953Z,99544.00
2022-11-22T02:43:43.089Z,99521.00
2022-11-22T02:46:25.049Z,99521.00
2022-11-22T02:48:58.023Z,99514.00
2022-11-22T02:51:31.076Z,99510.00
2022-11-22T02:54:04.022Z,99510.00
2022-11-22T02:56:36.864Z,99520.00
2022-11-22T02:59:09.737Z,99497.00
2022-11-22T03:01:42.628Z,99502.00
2022-11-22T03:04:17.019Z,99493.00
2022-11-22T03:06:49.928Z,99506.00
2022-11-22T03:09:22.853Z,99497.00
2022-11-22T03:11:55.720Z,99473.00
2022-11-22T03:14:28.620Z,99480.00
2022-11-22T03:17:01.937Z,99474.00
2022-11-22T03:19:35.595Z,99470.00
2022-11-22T03:22:08.833Z,99457.00
2022-11-22T03:24:42.677Z,99470.00
2022-11-22T03:27:15.573Z,99471.00
2022-11-22T03:29:48.326Z,99458.00
2022-11-22T03:32:21.225Z,99492.00
2022-11-22T03:34:54.212Z,99510.00
2022-11-22T03:37:27.212Z,99509.00
2022-11-22T03:40:00.332Z,99480.00
2022-11-22T03:42:33.231Z,99463.00
2022-11-22T03:45:10.328Z,99466.00
2022-11-22T03:47:43.165Z,99459.00
2022-11-22T03:50:16.624Z,99461.00
2022-11-22T03:52:49.636Z,99464.00
2022-11-22T03:55:22.689Z,99465.00
2022-11-22T03:57:55.852Z,99475.00
2022-11-22T04:00:28.799Z,99481.00
2022-11-22T04:03:01.894Z,99468.00
2022-11-22T04:05:34.771Z,99467.00
2022-11-22T04:08:07.867Z,99446.00
2022-11-22T04:10:40.851Z,99446.00
2022-11-22T04:13:14.194Z,99439.00
2022-11-22T04:15:47.311Z,99427.00
2022-11-22T04:18:23.450Z,99429.00
2022-11-22T04:21:14.299Z,99414.00
2022-11-22T04:23:48.286Z,99407.00
2022-11-22T04:26:21.400Z,99408.00
2022-11-22T04:29:09.202Z,99395.00
2022-11-22T04:31:46.003Z,99415.00
2022-11-22T04:34:19.066Z,99413.00
2022-11-22T04:36:52.149Z,99404.00
2022-11-22T04:39:25.119Z,99395.00
2022-11-22T04:42:18.531Z,99392.00
2022-11-22T04:44:51.532Z,99380.00
2022-11-22T04:47:45.043Z,99379.00
2022-11-22T04:50:33.925Z,99382.00
2022-11-22T04:53:07.061Z,99397.00
2022-11-22T04:55:39.976Z,99391.00
2022-11-22T04:58:12.964Z,99385.00
2022-11-22T05:00:46.149Z,99372.00
2022-11-22T05:03:19.308Z,99365.00
2022-11-22T05:05:52.592Z,99355.00
2022-11-22T05:08:25.194Z,99353.00
2022-11-22T05:11:01.540Z,99343.00
2022-11-22T05:13:36.409Z,99329.00
2022-11-22T05:16:11.209Z,99332.00
2022-11-22T05:18:44.122Z,99343.00
2022-11-22T05:21:21.456Z,99332.00
2022-11-22T05:23:57.406Z,99342.00
2022-11-22T05:26:32.645Z,99343.00
2022-11-22T05:29:10.077Z,99319.00
2022-11-22T05:31:48.328Z,99318.00
2022-11-22T05:34:18.881Z,99324.00
2022-11-22T05:36:51.925Z,99338.00
2022-11-22T05:39:24.893Z,99363.00
2022-11-22T05:42:01.302Z,99360.00
2022-11-22T05:44:34.377Z,99359.00
2022-11-22T05:47:07.032Z,99355.00
2022-11-22T05:49:39.888Z,99358.00
2022-11-22T05:52:12.940Z,99360.00
2022-11-22T05:54:45.844Z,99348.00
2022-11-22T05:57:21.554Z,99361.00
2022-11-22T05:59:55.362Z,99369.00
2022-11-22T06:02:28.332Z,99363.00
2022-11-22T06:05:01.416Z,99364.00
2022-11-22T06:07:34.905Z,99357.00
2022-11-22T06:10:07.888Z,99353.00
2022-11-22T06:12:40.692Z,99343.00
2022-11-22T06:15:14.739Z,99327.00
2022-11-22T06:17:47.534Z,99337.00
2022-11-22T06:20:20.786Z,99322.00
2022-11-22T06:22:53.635Z,99289.00
2022-11-22T06:25:26.597Z,99284.00
2022-11-22T06:28:01.036Z,99279.00
2022-11-22T06:30:34.005Z,99295.00
2022-11-22T06:33:07.065Z,99291.00
2022-11-22T06:35:40.006Z,99291.00
2022-11-22T06:38:12.883Z,99272.00
2022-11-22T06:40:45.907Z,99245.00
2022-11-22T06:43:18.734Z,99256.00
2022-11-22T06:45:51.481Z,99256.00
2022-11-22T06:48:24.387Z,99261.00
2022-11-22T06:50:58.201Z,99252.00
2022-11-22T06:53:46.770Z,99254.00
2022-11-22T06:56:11.624Z,99245.00
2022-11-22T06:58:45.208Z,99244.00
2022-11-22T07:01:20.387Z,99225.00
2022-11-22T07:03:53.674Z,99222.00
2022-11-22T07:06:26.851Z,99232.00
2022-11-22T07:08:59.872Z,99218.00
2022-11-22T07:11:34.275Z,99205.00
2022-11-22T07:14:09.299Z,99177.00
2022-11-22T07:16:42.772Z,99151.00
2022-11-22T07:19:16.202Z,99155.00
2022-11-22T07:21:49.091Z,99179.00
2022-11-22T07:24:22.143Z,99152.00
2022-11-22T07:26:55.087Z,99143.00
2022-11-22T07:29:30.925Z,99142.00
2022-11-22T07:32:07.220Z,99129.00
2022-11-22T07:34:42.460Z,99145.00
2022-11-22T07:37:15.250Z,99163.00
2022-11-22T07:39:48.088Z,99162.00
2022-11-22T07:42:25.831Z,99138.00
2022-11-22T07:44:55.732Z,99148.00
2022-11-22T07:47:28.525Z,99117.00
2022-11-22T07:50:01.279Z,99117.00
2022-11-22T07:52:34.201Z,99112.00
2022-11-22T07:55:12.655Z,99118.00
2022-11-22T07:57:42.581Z,99090.00
2022-11-22T08:00:16.485Z,99088.00
2022-11-22T08:02:49.534Z,99113.00
2022-11-22T08:05:22.442Z,99110.00
2022-11-22T08:07:56.409Z,99091.00
2022-11-22T08:10:29.142Z,99094.00
2022-11-22T08:13:07.774Z,99096.00
2022-11-22T08:15:41.478Z,99089.00
2022-11-22T08:18:14.471Z,99104.00
2022-11-22T08:20:47.302Z,99067.00
2022-11-22T08:23:20.104Z,99066.00
2022-11-22T08:25:57.238Z,99064.00
2022-11-22T08:28:30.350Z,99074.00
2022-11-22T08:31:11.289Z,99086.00
2022-11-22T08:33:44.636Z,99103.00
2022-11-22T08:36:17.661Z,99081.00
2022-11-22T08:38:50.814Z,99085.00
2022-11-22T08:41:24.099Z,99084.00
2022-11-22T08:43:57.451Z,99085.00
2022-11-22T08:46:30.567Z,99052.00
2022-11-22T08:49:04.764Z,99052.00
2022-11-22T08:51:38.915Z,99050.00
2022-11-22T08:54:11.780Z,99050.00
2022-11-22T08:56:45.225Z,99040.00
2022-11-22T08:59:18.489Z,99029.00
2022-11-22T09:01:54.305Z,99034.00
2022-11-22T09:04:27.408Z,99036.00
2022-11-22T09:09:37.733Z,99037.00
2022-11-22T09:12:11.984Z,99058.00
2022-11-22T09:14:45.070Z,99071.00
2022-11-22T09:17:18.422Z,99035.00
2022-11-22T09:19:51.384Z,99048.00
2022-11-22T09:22:28.390Z,99041.00
2022-11-22T09:24:58.612Z,99038.00
2022-11-22T09:27:31.864Z,99028.00
2022-11-22T09:30:05.021Z,99017.00
2022-11-22T09:32:38.253Z,99021.00
2022-11-22T09:35:11.759Z,99024.00
2022-11-22T09:37:44.650Z,99039.00
2022-11-22T09:40:18.993Z,99054.00
2022-11-22T09:43:08.775Z,99064.00
2022-11-22T09:45:46.813Z,99070.00
2022-11-22T09:48:54.920Z,99065.00
2022-11-22T09:51:29.681Z,99072.00
2022-11-22T09:54:10.436Z,99092.00
2022-11-22T09:56:44.379Z,99082.00
2022-11-22T09:59:18.980Z,99096.00
2022-11-22T10:01:58.713Z,99105.00
2022-11-22T10:04:45.446Z,99104.00
2022-11-22T10:07:35.077Z,99115.00
2022-11-22T10:10:10.251Z,99115.00
2022-11-22T10:12:57.083Z,99111.00
2022-11-22T10:15:38.039Z,99114.00
2022-11-22T10:18:15.682Z,99096.00
2022-11-22T10:20:49.279Z,99100.00
2022-11-22T10:23:26.546Z,99120.00
2022-11-22T10:26:04.582Z,99139.00
2022-11-22T10:28:44.908Z,99147.00
2022-11-22T10:31:22.434Z,99150.00
2022-11-22T10:34:18.875Z,99160.00
2022-11-22T10:36:57.155Z,99156.00
2022-11-22T10:39:59.015Z,99150.00
2022-11-22T10:42:37.032Z,99137.00
2022-11-22T10:45:12.024Z,99133.00
2022-11-22T10:48:01.813Z,99117.00
2022-11-22T10:50:58.611Z,99106.00
2022-11-22T10:54:08.588Z,99110.00
2022-11-22T10:56:50.685Z,99101.00
2022-11-22T10:59:31.399Z,99101.00
2022-11-22T11:02:09.505Z,99093.00
2022-11-22T11:04:44.370Z,99073.00
2022-11-22T11:07:19.130Z,99092.00
2022-11-22T11:10:20.302Z,99086.00
2022-11-22T11:12:38.785Z,99091.00
2022-11-22T11:15:25.905Z,99079.00
2022-11-22T11:18:04.038Z,99073.00
2022-11-22T11:20:44.874Z,99080.00
2022-11-22T11:23:18.259Z,99086.00
2022-11-22T11:25:53.104Z,99076.00
2022-11-22T11:28:31.790Z,99077.00
2022-11-22T11:31:12.226Z,99058.00
2022-11-22T11:33:45.700Z,99063.00
2022-11-22T11:36:26.294Z,99069.00
2022-11-22T11:39:01.134Z,99067.00
2022-11-22T11:41:40.331Z,99070.00
2022-11-22T11:44:11.281Z,99070.00
2022-11-22T11:46:49.347Z,99076.00
2022-11-22T11:49:24.203Z,99057.00
2022-11-22T11:52:11.846Z,99077.00
2022-11-22T11:54:46.387Z,99072.00
2022-11-22T11:57:29.928Z,99066.00
2022-11-22T12:00:04.925Z,99056.00
2022-11-22T12:02:45.150Z,99047.00
2022-11-22T12:05:20.261Z,99066.00
2022-11-22T12:07:55.711Z,99074.00
2022-11-22T12:10:54.558Z,99070.00
2022-11-22T12:13:33.427Z,99060.00
2022-11-22T12:16:09.450Z,99042.00
2022-11-22T12:19:01.926Z,99047.00
2022-11-22T12:21:53.538Z,99040.00
2022-11-22T12:25:02.772Z,99048.00
2022-11-22T12:27:16.646Z,99056.00
2022-11-22T12:29:50.039Z,99043.00
2022-11-22T12:32:30.399Z,99048.00
2022-11-22T12:35:10.926Z,99049.00
2022-11-22T12:38:07.006Z,99042.00
2022-11-22T12:40:44.415Z,99042.00
2022-11-22T12:43:28.470Z,99033.00
2022-11-22T12:46:03.499Z,99038.00
2022-11-22T12:48:54.753Z,99037.00
2022-11-22T12:51:48.858Z,99032.00
2022-11-22T12:54:35.948Z,99015.00
2022-11-22T12:57:10.753Z,98995.00
2022-11-22T12:59:51.707Z,98991.00
2022-11-22T13:02:36.213Z,98986.00
2022-11-22T13:05:23.324Z,99002.00
2022-11-22T13:08:13.956Z,98999.00
2022-11-22T13:10:58.267Z,98983.00
2022-11-22T13:13:42.496Z,98968.00
2022-11-22T13:16:16.890Z,98976.00
2022-11-22T13:18:57.564Z,98971.00
2022-11-22T13:21:32.830Z,98981.00
2022-11-22T13:24:22.862Z,99009.00
2022-11-22T13:27:30.933Z,99008.00
2022-11-22T13:30:06.004Z,98998.00
2022-11-22T13:32:39.514Z,98997.00
2022-11-22T13:35:17.598Z,99003.00
2022-11-22T13:37:52.461Z,99014.00
2022-11-22T13:40:30.462Z,98999.00
2022-11-22T13:43:24.578Z,99021.00
2022-11-22T13:46:07.551Z,99020.00
2022-11-22T13:48:49.530Z,99025.00
2022-11-22T13:51:24.653Z,99031.00
2022-11-22T13:53:59.650Z,99042.00
2022-11-22T13:56:34.888Z,99047.00
2022-11-22T13:59:10.436Z,99039.00
2022-11-22T14:01:45.560Z,99042.00
2022-11-22T14:04:33.191Z,99039.00
2022-11-22T14:07:16.984Z,99032.00
2022-11-22T14:10:00.905Z,99028.00
2022-11-22T14:12:54.289Z,99029.00
2022-11-22T14:15:56.420Z,99038.00
2022-11-22T14:19:04.471Z,99049.00
2022-11-22T14:22:01.521Z,99051.00
2022-11-22T14:24:39.530Z,99049.00
2022-11-22T14:27:14.355Z,99065.00
2022-11-22T14:29:58.899Z,99062.00
2022-11-22T14:32:34.127Z,99062.00
2022-11-22T14:35:12.553Z,99059.00
2022-11-22T14:37:50.898Z,99067.00
2022-11-22T14:40:35.437Z,99073.00
2022-11-22T14:43:17.015Z,99082.00
2022-11-22T14:46:04.502Z,99093.00
2022-11-22T14:48:48.195Z,99088.00
2022-11-22T14:51:32.650Z,99105.00
2022-11-22T14:54:12.451Z,99102.00
2022-11-22T14:56:46.840Z,99108.00
2022-11-22T14:59:21.570Z,99094.00
2022-11-22T15:02:05.978Z,99097.00
2022-11-22T15:09:11.235Z,99086.00
2022-11-22T15:09:12.287Z,99075.00
2022-11-22T15:11:00.399Z,99081.00
2022-11-22T15:14:01.671Z,99092.00
2022-11-22T15:59:44.739Z,99104.00
2022-11-22T16:02:22.630Z,99097.00
2022-11-22T16:06:07.338Z,99093.00
2022-11-22T16:07:39.797Z,99096.00
2022-11-22T16:10:15.166Z,99087.00
2022-11-22T16:12:48.253Z,99104.00
2022-11-22T16:15:41.316Z,99116.00
2022-11-22T16:18:19.183Z,99111.00
2022-11-22T16:21:18.003Z,99113.00
2022-11-22T16:23:51.062Z,99114.00
2022-11-22T16:26:26.741Z,99126.00
2022-11-22T16:29:01.067Z,99143.00
2022-11-22T16:31:36.993Z,99147.00
2022-11-22T16:34:12.310Z,99174.00
2022-11-22T16:36:45.164Z,99185.00
2022-11-22T16:39:18.311Z,99203.00
2022-11-22T16:41:51.798Z,99207.00
2022-11-22T16:44:25.060Z,99198.00
2022-11-22T16:46:57.966Z,99207.00
2022-11-22T16:49:31.315Z,99212.00
2022-11-22T16:52:05.081Z,99208.00
2022-11-22T16:54:38.009Z,99208.00
2022-11-22T16:57:20.916Z,99215.00
2022-11-22T16:59:53.743Z,99209.00
2022-11-22T17:02:26.548Z,99227.00
2022-11-22T17:04:59.394Z,99228.00
2022-11-22T17:07:32.342Z,99230.00
2022-11-22T17:10:05.348Z,99228.00
2022-11-22T17:12:38.368Z,99241.00
2022-11-22T17:15:14.373Z,99249.00
2022-11-22T17:17:47.289Z,99256.00
2022-11-22T17:20:20.320Z,99261.00
2022-11-22T17:22:53.361Z,99261.00
2022-11-22T17:25:26.740Z,99260.00
2022-11-22T17:27:59.592Z,99257.00
2022-11-22T17:30:32.554Z,99252.00
2022-11-22T17:33:05.278Z,99258.00
2022-11-22T17:35:38.268Z,99269.00
2022-11-22T17:38:13.076Z,99267.00
2022-11-22T17:40:47.096Z,99285.00
2022-11-22T17:43:19.971Z,99305.00
2022-11-22T17:45:53.059Z,99318.00
2022-11-22T17:48:25.964Z,99320.00
2022-11-22T17:50:58.876Z,99327.00
2022-11-22T17:53:31.718Z,99331.00
2022-11-22T17:56:12.177Z,99357.00
2022-11-22T17:58:39.880Z,99379.00
2022-11-22T18:01:17.975Z,99411.00
2022-11-22T18:03:51.196Z,99413.00
2022-11-22T18:06:24.594Z,99406.00
2022-11-22T18:08:57.358Z,99408.00
2022-11-22T18:11:30.243Z,99405.00
2022-11-22T18:14:07.383Z,99415.00
2022-11-22T18:16:40.441Z,99407.00
2022-11-22T18:19:13.088Z,99421.00
2022-11-22T18:21:45.957Z,99426.00
2022-11-22T18:24:19.302Z,99432.00
2022-11-22T18:26:52.125Z,99439.00
2022-11-22T18:29:42.491Z,99445.00
2022-11-22T18:31:59.109Z,99432.00
2022-11-22T18:34:32.022Z,99426.00
2022-11-22T18:37:05.230Z,99420.00
2022-11-22T18:39:40.244Z,99418.00
2022-11-22T18:42:17.937Z,99425.00
2022-11-22T18:44:50.781Z,99414.00
2022-11-22T18:47:23.750Z,99422.00
2022-11-22T18:49:56.692Z,99442.00
2022-11-22T18:52:29.713Z,99432.00
2022-11-22T18:55:02.696Z,99451.00
2022-11-22T18:57:35.710Z,99449.00
2022-11-22T19:00:09.035Z,99454.00
2022-11-22T19:02:42.075Z,99458.00
2022-11-22T19:05:15.012Z,99473.00
2022-11-22T19:07:47.972Z,99488.00
2022-11-22T19:10:25.303Z,99490.00
2022-11-22T19:12:58.215Z,99498.00
2022-11-22T19:15:31.682Z,99500.00
2022-11-22T19:18:04.719Z,99499.00
2022-11-22T19:20:54.550Z,99509.00
2022-11-22T19:23:12.264Z,99515.00
2022-11-22T19:25:45.175Z,99510.00
2022-11-22T19:28:18.063Z,99512.00
2022-11-22T19:30:51.155Z,99517.00
2022-11-22T19:33:24.651Z,99522.00
2022-11-22T19:36:05.517Z,99534.00
2022-11-22T19:38:38.496Z,99525.00
2022-11-22T19:41:19.081Z,99518.00
2022-11-22T19:43:52.937Z,99523.00
2022-11-22T19:46:25.973Z,99528.00
2022-11-22T19:49:00.462Z,99535.00
2022-11-22T19:51:34.219Z,99523.00
2022-11-22T19:54:07.248Z,99534.00
2022-11-22T19:56:40.820Z,99530.00
2022-11-22T19:59:15.607Z,99528.00
2022-11-22T20:01:48.673Z,99539.00
2022-11-22T20:04:21.658Z,99538.00
2022-11-22T20:06:54.732Z,99538.00
2022-11-22T20:09:28.460Z,99549.00
2022-11-22T20:12:01.559Z,99544.00
2022-11-22T20:14:34.483Z,99564.00
2022-11-22T20:17:07.564Z,99565.00
2022-11-22T20:19:40.353Z,99575.00
2022-11-22T20:22:13.317Z,99577.00
2022-11-22T20:24:46.209Z,99584.00
2022-11-22T20:27:24.378Z,99596.00
2022-11-22T20:29:53.583Z,99604.00
2022-11-22T20:32:26.517Z,99590.00
2022-11-22T20:34:59.840Z,99599.00
2022-11-22T20:37:37.166Z,99601.00
2022-11-22T20:40:11.039Z,99605.00
2022-11-22T20:42:44.048Z,99592.00
2022-11-22T20:45:18.374Z,99594.00
2022-11-22T20:47:51.442Z,99617.00
2022-11-22T20:50:24.388Z,99621.00
2022-11-22T20:52:57.468Z,99627.00
2022-11-22T20:55:35.129Z,99646.00
2022-11-22T20:58:08.205Z,99648.00
2022-11-22T21:00:41.622Z,99670.00
2022-11-22T21:03:14.497Z,99677.00
2022-11-22T21:05:52.098Z,99690.00
2022-11-22T21:08:25.456Z,99681.00
2022-11-22T21:10:59.531Z,99695.00
2022-11-22T21:13:32.451Z,99686.00
2022-11-22T21:16:21.510Z,99685.00
2022-11-22T21:18:41.206Z,99690.00
2022-11-22T21:21:22.113Z,99681.00
2022-11-22T21:23:56.503Z,99690.00
2022-11-22T21:26:29.893Z,99686.00
2022-11-22T21:29:03.244Z,99686.00
2022-11-22T21:31:36.202Z,99693.00
2022-11-22T21:34:09.252Z,99675.00
2022-11-22T21:36:42.593Z,99689.00
2022-11-22T21:39:15.532Z,99688.00
2022-11-22T21:41:48.547Z,99698.00
2022-11-22T21:44:21.495Z,99691.00
2022-11-22T21:46:54.352Z,99699.00
2022-11-22T21:49:27.275Z,99697.00
2022-11-22T21:52:00.971Z,99702.00
2022-11-22T21:54:33.947Z,99718.00
2022-11-22T21:57:06.915Z,99714.00
2022-11-22T21:59:39.812Z,99743.00
2022-11-22T22:02:13.319Z,99733.00
2022-11-22T22:04:46.251Z,99749.00
2022-11-22T22:07:44.656Z,99758.00
2022-11-22T22:09:53.311Z,99756.00
2022-11-22T22:12:26.120Z,99765.00
2022-11-22T22:14:59.221Z,99763.00
2022-11-22T22:17:32.107Z,99770.00
2022-11-22T22:20:05.160Z,99764.00
2022-11-22T22:22:39.165Z,99771.00
2022-11-22T22:25:12.410Z,99780.00
2022-11-22T22:27:46.538Z,99776.00
2022-11-22T22:30:20.168Z,99780.00
2022-11-22T22:32:53.020Z,99785.00
2022-11-22T22:35:26.178Z,99787.00
2022-11-22T22:37:59.306Z,99785.00
2022-11-22T22:40:32.465Z,99822.00
2022-11-22T22:43:05.373Z,99810.00
2022-11-22T22:45:39.141Z,99808.00
2022-11-22T22:48:12.198Z,99817.00
2022-11-22T22:50:45.177Z,99837.00
2022-11-22T22:53:18.180Z,99818.00
2022-11-22T22:55:57.854Z,99823.00
2022-11-22T22:58:30.699Z,99834.00
2022-11-22T23:01:14.791Z,99836.00
2022-11-22T23:03:54.966Z,99840.00
2022-11-22T23:06:29.279Z,99841.00
2022-11-22T23:09:02.941Z,99847.00
2022-11-22T23:11:53.887Z,99831.00
2022-11-22T23:14:31.142Z,99840.00
2022-11-22T23:17:03.943Z,99855.00
2022-11-22T23:19:36.866Z,99871.00
2022-11-22T23:22:09.745Z,99879.00
2022-11-22T23:24:42.629Z,99878.00
2022-11-22T23:27:15.654Z,99886.00
2022-11-22T23:29:48.609Z,99886.00
2022-11-22T23:32:21.508Z,99884.00
2022-11-22T23:34:54.442Z,99886.00
2022-11-22T23:37:27.496Z,99902.00
2022-11-22T23:40:00.455Z,99896.00
2022-11-22T23:42:34.296Z,99916.00
2022-11-22T23:45:07.306Z,99916.00
2022-11-22T23:47:40.129Z,99916.00
2022-11-22T23:50:13.758Z,99926.00
2022-11-22T23:52:50.989Z,99943.00
2022-11-22T23:55:23.935Z,99938.00
2022-11-22T23:57:56.949Z,99931.00
